sensor_id;sensor_type;location;lat;lon;timestamp;pressure;altitude;pressure_sealevel;temperature;humidity
41515;BME280;27247;48.020;16.720;2023-04-27T00:02:41;100174.25;;;6.69;84.15
41515;BME280;27247;48.020;16.720;2023-04-27T00:06:51;100163.47;;;6.70;84.25
41515;BME280;27247;48.020;16.720;2023-04-27T00:11:02;100164.03;;;6.74;83.76
41515;BME280;27247;48.020;16.720;2023-04-27T00:15:12;100169.75;;;6.79;84.20
41515;BME280;27247;48.020;16.720;2023-04-27T00:19:23;100163.75;;;6.77;84.39
41515;BME280;27247;48.020;16.720;2023-04-27T00:23:33;100163.03;;;6.85;84.47
41515;BME280;27247;48.020;16.720;2023-04-27T00:27:44;100159.69;;;6.73;84.37
41515;BME280;27247;48.020;16.720;2023-04-27T00:31:54;100164.19;;;6.63;85.70
41515;BME280;27247;48.020;16.720;2023-04-27T00:36:05;100163.09;;;6.56;86.68
41515;BME280;27247;48.020;16.720;2023-04-27T00:40:15;100162.25;;;6.55;86.87
41515;BME280;27247;48.020;16.720;2023-04-27T00:44:27;100163.34;;;6.62;86.90
41515;BME280;27247;48.020;16.720;2023-04-27T00:48:37;100172.16;;;6.53;86.75
41515;BME280;27247;48.020;16.720;2023-04-27T00:52:48;100166.03;;;6.33;87.45
41515;BME280;27247;48.020;16.720;2023-04-27T00:56:58;100163.38;;;6.33;88.27
41515;BME280;27247;48.020;16.720;2023-04-27T01:01:09;100164.22;;;6.34;87.98
41515;BME280;27247;48.020;16.720;2023-04-27T01:05:20;100159.34;;;6.29;88.60
41515;BME280;27247;48.020;16.720;2023-04-27T01:09:37;100172.03;;;6.35;88.00
41515;BME280;27247;48.020;16.720;2023-04-27T01:13:47;100159.47;;;6.37;87.71
41515;BME280;27247;48.020;16.720;2023-04-27T01:17:58;100159.75;;;6.34;87.17
41515;BME280;27247;48.020;16.720;2023-04-27T01:22:09;100170.09;;;6.37;87.62
41515;BME280;27247;48.020;16.720;2023-04-27T01:26:19;100171.06;;;6.36;87.08
41515;BME280;27247;48.020;16.720;2023-04-27T01:30:30;100159.31;;;6.49;85.65
41515;BME280;27247;48.020;16.720;2023-04-27T01:34:40;100168.81;;;6.22;86.82
41515;BME280;27247;48.020;16.720;2023-04-27T01:38:50;100172.16;;;6.15;87.91
41515;BME280;27247;48.020;16.720;2023-04-27T01:43:01;100170.91;;;6.19;87.82
41515;BME280;27247;48.020;16.720;2023-04-27T01:47:11;100175.78;;;6.23;88.20
41515;BME280;27247;48.020;16.720;2023-04-27T01:51:23;100169.78;;;6.02;89.60
41515;BME280;27247;48.020;16.720;2023-04-27T01:55:34;100166.28;;;6.11;89.49
41515;BME280;27247;48.020;16.720;2023-04-27T01:59:44;100177.88;;;6.10;89.45
41515;BME280;27247;48.020;16.720;2023-04-27T02:03:55;100173.13;;;6.04;89.76
41515;BME280;27247;48.020;16.720;2023-04-27T02:08:05;100179.81;;;5.98;89.40
41515;BME280;27247;48.020;16.720;2023-04-27T02:12:15;100180.66;;;5.99;88.84
41515;BME280;27247;48.020;16.720;2023-04-27T02:16:25;100187.63;;;6.00;88.09
41515;BME280;27247;48.020;16.720;2023-04-27T02:20:36;100177.84;;;5.91;87.60
41515;BME280;27247;48.020;16.720;2023-04-27T02:24:46;100178.78;;;5.80;87.45
41515;BME280;27247;48.020;16.720;2023-04-27T02:28:56;100188.88;;;5.46;87.11
41515;BME280;27247;48.020;16.720;2023-04-27T02:33:07;100189.38;;;5.30;88.60
41515;BME280;27247;48.020;16.720;2023-04-27T02:37:17;100198.88;;;5.33;88.96
41515;BME280;27247;48.020;16.720;2023-04-27T02:41:31;100185.19;;;5.28;89.60
41515;BME280;27247;48.020;16.720;2023-04-27T02:45:41;100183.38;;;5.28;88.83
41515;BME280;27247;48.020;16.720;2023-04-27T02:49:51;100187.53;;;5.21;88.95
41515;BME280;27247;48.020;16.720;2023-04-27T02:54:02;100190.41;;;5.18;88.76
41515;BME280;27247;48.020;16.720;2023-04-27T02:58:13;100186.22;;;5.16;88.32
41515;BME280;27247;48.020;16.720;2023-04-27T03:02:23;100189.25;;;5.11;88.42
41515;BME280;27247;48.020;16.720;2023-04-27T03:06:34;100185.63;;;5.12;87.94
41515;BME280;27247;48.020;16.720;2023-04-27T03:10:44;100192.56;;;5.03;88.63
41515;BME280;27247;48.020;16.720;2023-04-27T03:14:54;100196.88;;;5.04;88.90
41515;BME280;27247;48.020;16.720;2023-04-27T03:19:05;100191.22;;;4.88;88.53
41515;BME280;27247;48.020;16.720;2023-04-27T03:23:16;100206.34;;;4.76;88.86
41515;BME280;27247;48.020;16.720;2023-04-27T03:27:26;100204.91;;;4.72;89.37
41515;BME280;27247;48.020;16.720;2023-04-27T03:31:36;100218.81;;;4.65;88.29
41515;BME280;27247;48.020;16.720;2023-04-27T03:35:56;100215.25;;;4.55;89.48
41515;BME280;27247;48.020;16.720;2023-04-27T03:40:07;100219.88;;;4.41;90.86
41515;BME280;27247;48.020;16.720;2023-04-27T03:44:18;100215.69;;;4.39;91.58
41515;BME280;27247;48.020;16.720;2023-04-27T03:48:28;100225.41;;;4.38;91.68
41515;BME280;27247;48.020;16.720;2023-04-27T03:52:38;100219.50;;;4.46;92.00
41515;BME280;27247;48.020;16.720;2023-04-27T03:56:49;100228.66;;;4.42;91.66
41515;BME280;27247;48.020;16.720;2023-04-27T04:00:59;100237.81;;;4.38;91.31
41515;BME280;27247;48.020;16.720;2023-04-27T04:05:11;100232.91;;;4.33;91.07
41515;BME280;27247;48.020;16.720;2023-04-27T04:09:23;100226.63;;;4.34;91.46
41515;BME280;27247;48.020;16.720;2023-04-27T04:13:33;100219.66;;;4.33;91.23
41515;BME280;27247;48.020;16.720;2023-04-27T04:17:45;100230.59;;;4.40;91.77
41515;BME280;27247;48.020;16.720;2023-04-27T04:21:56;100232.53;;;4.59;91.59
41515;BME280;27247;48.020;16.720;2023-04-27T04:26:07;100226.78;;;4.54;90.75
41515;BME280;27247;48.020;16.720;2023-04-27T04:30:18;100225.38;;;4.49;90.31
41515;BME280;27247;48.020;16.720;2023-04-27T04:34:29;100232.50;;;4.38;90.67
41515;BME280;27247;48.020;16.720;2023-04-27T04:38:39;100234.44;;;4.36;90.65
41515;BME280;27247;48.020;16.720;2023-04-27T04:42:50;100245.50;;;4.41;90.40
41515;BME280;27247;48.020;16.720;2023-04-27T04:47:00;100248.84;;;4.43;90.60
41515;BME280;27247;48.020;16.720;2023-04-27T04:51:11;100243.00;;;4.60;90.19
41515;BME280;27247;48.020;16.720;2023-04-27T04:55:21;100247.19;;;4.63;90.10
41515;BME280;27247;48.020;16.720;2023-04-27T04:59:32;100243.06;;;4.70;90.33
41515;BME280;27247;48.020;16.720;2023-04-27T05:03:43;100250.56;;;4.86;90.10
41515;BME280;27247;48.020;16.720;2023-04-27T05:07:53;100252.19;;;4.98;90.16
41515;BME280;27247;48.020;16.720;2023-04-27T05:12:05;100248.44;;;5.00;90.40
41515;BME280;27247;48.020;16.720;2023-04-27T05:16:16;100253.59;;;5.02;91.70
41515;BME280;27247;48.020;16.720;2023-04-27T05:20:26;100255.03;;;5.27;92.22
41515;BME280;27247;48.020;16.720;2023-04-27T05:24:36;100256.44;;;5.31;92.45
41515;BME280;27247;48.020;16.720;2023-04-27T05:28:47;100258.00;;;5.64;91.72
41515;BME280;27247;48.020;16.720;2023-04-27T05:32:58;100273.06;;;5.94;89.79
41515;BME280;27247;48.020;16.720;2023-04-27T05:37:08;100275.22;;;6.19;88.52
41515;BME280;27247;48.020;16.720;2023-04-27T05:41:19;100267.44;;;6.37;86.31
41515;BME280;27247;48.020;16.720;2023-04-27T05:45:29;100263.56;;;6.60;83.91
41515;BME280;27247;48.020;16.720;2023-04-27T05:49:40;100272.34;;;6.80;83.51
41515;BME280;27247;48.020;16.720;2023-04-27T05:53:50;100274.72;;;7.02;83.09
41515;BME280;27247;48.020;16.720;2023-04-27T05:58:04;100274.97;;;7.19;83.29
41515;BME280;27247;48.020;16.720;2023-04-27T06:02:14;100282.66;;;7.31;82.44
41515;BME280;27247;48.020;16.720;2023-04-27T06:06:26;100284.16;;;7.44;81.43
41515;BME280;27247;48.020;16.720;2023-04-27T06:10:40;100286.06;;;7.61;79.72
41515;BME280;27247;48.020;16.720;2023-04-27T06:14:50;100284.69;;;7.84;80.46
41515;BME280;27247;48.020;16.720;2023-04-27T06:19:00;100290.31;;;8.09;79.27
41515;BME280;27247;48.020;16.720;2023-04-27T06:23:11;100292.44;;;8.32;78.85
41515;BME280;27247;48.020;16.720;2023-04-27T06:27:21;100287.41;;;8.57;75.75
41515;BME280;27247;48.020;16.720;2023-04-27T06:31:35;100291.97;;;8.82;73.38
41515;BME280;27247;48.020;16.720;2023-04-27T06:35:45;100287.44;;;9.18;71.43
41515;BME280;27247;48.020;16.720;2023-04-27T06:39:55;100301.75;;;9.61;68.37
41515;BME280;27247;48.020;16.720;2023-04-27T06:44:06;100294.94;;;10.01;66.51
41515;BME280;27247;48.020;16.720;2023-04-27T06:48:16;100294.91;;;10.35;64.14
41515;BME280;27247;48.020;16.720;2023-04-27T06:52:26;100287.16;;;10.66;64.18
41515;BME280;27247;48.020;16.720;2023-04-27T06:56:37;100291.34;;;10.93;61.32
41515;BME280;27247;48.020;16.720;2023-04-27T07:00:47;100292.69;;;10.88;60.81
41515;BME280;27247;48.020;16.720;2023-04-27T07:04:58;100299.53;;;11.07;59.51
41515;BME280;27247;48.020;16.720;2023-04-27T07:09:08;100289.16;;;11.53;58.18
41515;BME280;27247;48.020;16.720;2023-04-27T07:13:18;100297.28;;;11.92;56.71
41515;BME280;27247;48.020;16.720;2023-04-27T07:17:29;100285.91;;;11.90;54.32
41515;BME280;27247;48.020;16.720;2023-04-27T07:21:39;100285.91;;;11.90;54.92
41515;BME280;27247;48.020;16.720;2023-04-27T07:25:50;100278.53;;;11.92;54.53
41515;BME280;27247;48.020;16.720;2023-04-27T07:30:01;100281.72;;;11.88;49.89
41515;BME280;27247;48.020;16.720;2023-04-27T07:34:11;100282.94;;;11.69;50.87
41515;BME280;27247;48.020;16.720;2023-04-27T07:38:21;100285.28;;;11.64;51.31
41515;BME280;27247;48.020;16.720;2023-04-27T07:42:39;100281.56;;;11.89;51.13
41515;BME280;27247;48.020;16.720;2023-04-27T07:46:51;100274.06;;;12.15;49.87
41515;BME280;27247;48.020;16.720;2023-04-27T07:51:03;100279.88;;;12.27;47.53
41515;BME280;27247;48.020;16.720;2023-04-27T07:55:14;100281.31;;;12.69;46.98
41515;BME280;27247;48.020;16.720;2023-04-27T07:59:28;100277.56;;;13.01;46.97
41515;BME280;27247;48.020;16.720;2023-04-27T08:03:38;100279.16;;;12.87;46.38
41515;BME280;27247;48.020;16.720;2023-04-27T08:07:48;100284.34;;;12.66;46.12
41515;BME280;27247;48.020;16.720;2023-04-27T08:12:01;100275.78;;;12.70;45.87
41515;BME280;27247;48.020;16.720;2023-04-27T08:16:12;100277.91;;;12.75;45.95
41515;BME280;27247;48.020;16.720;2023-04-27T08:20:22;100284.41;;;12.81;46.56
41515;BME280;27247;48.020;16.720;2023-04-27T08:24:32;100280.00;;;12.88;47.10
41515;BME280;27247;48.020;16.720;2023-04-27T08:28:43;100281.59;;;12.97;47.18
41515;BME280;27247;48.020;16.720;2023-04-27T08:32:53;100277.25;;;12.96;45.65
41515;BME280;27247;48.020;16.720;2023-04-27T08:37:03;100291.81;;;12.78;45.71
41515;BME280;27247;48.020;16.720;2023-04-27T08:41:20;100298.91;;;12.71;45.39
41515;BME280;27247;48.020;16.720;2023-04-27T08:45:31;100291.25;;;13.06;45.09
41515;BME280;27247;48.020;16.720;2023-04-27T08:49:41;100278.50;;;13.46;44.07
41515;BME280;27247;48.020;16.720;2023-04-27T08:53:54;100279.34;;;13.46;48.28
41515;BME280;27247;48.020;16.720;2023-04-27T08:58:05;100279.22;;;13.02;45.62
41515;BME280;27247;48.020;16.720;2023-04-27T09:02:19;100280.59;;;13.21;46.66
41515;BME280;27247;48.020;16.720;2023-04-27T09:06:31;100277.03;;;13.43;47.24
41515;BME280;27247;48.020;16.720;2023-04-27T09:10:46;100277.25;;;13.56;46.68
41515;BME280;27247;48.020;16.720;2023-04-27T09:15:00;100274.56;;;14.00;44.59
41515;BME280;27247;48.020;16.720;2023-04-27T09:19:23;100270.16;;;14.29;45.33
41515;BME280;27247;48.020;16.720;2023-04-27T09:23:38;100266.69;;;14.64;44.11
41515;BME280;27247;48.020;16.720;2023-04-27T09:27:54;100263.34;;;14.62;43.92
41515;BME280;27247;48.020;16.720;2023-04-27T09:32:15;100271.38;;;15.26;45.40
41515;BME280;27247;48.020;16.720;2023-04-27T09:36:25;100267.44;;;15.78;43.64
41515;BME280;27247;48.020;16.720;2023-04-27T09:40:36;100258.63;;;15.63;47.28
41515;BME280;27247;48.020;16.720;2023-04-27T09:44:51;100251.94;;;15.59;45.76
41515;BME280;27247;48.020;16.720;2023-04-27T09:49:03;100258.25;;;15.17;43.52
41515;BME280;27247;48.020;16.720;2023-04-27T09:53:17;100259.31;;;14.94;45.88
41515;BME280;27247;48.020;16.720;2023-04-27T09:57:45;100258.63;;;15.14;43.75
41515;BME280;27247;48.020;16.720;2023-04-27T10:02:01;100248.91;;;15.41;44.94
41515;BME280;27247;48.020;16.720;2023-04-27T10:06:45;100243.56;;;15.75;41.48
41515;BME280;27247;48.020;16.720;2023-04-27T10:11:12;100242.38;;;16.45;42.28
41515;BME280;27247;48.020;16.720;2023-04-27T10:15:27;100237.94;;;16.92;42.91
41515;BME280;27247;48.020;16.720;2023-04-27T10:19:37;100232.94;;;17.29;43.08
41515;BME280;27247;48.020;16.720;2023-04-27T10:23:51;100221.94;;;17.37;42.76
41515;BME280;27247;48.020;16.720;2023-04-27T10:28:02;100227.78;;;16.20;42.94
41515;BME280;27247;48.020;16.720;2023-04-27T10:32:19;100217.72;;;15.25;45.16
41515;BME280;27247;48.020;16.720;2023-04-27T10:36:37;100226.41;;;14.56;44.23
41515;BME280;27247;48.020;16.720;2023-04-27T10:40:55;100224.72;;;14.70;47.33
41515;BME280;27247;48.020;16.720;2023-04-27T10:45:06;100214.44;;;15.01;47.05
41515;BME280;27247;48.020;16.720;2023-04-27T10:49:18;100205.31;;;15.58;45.93
41515;BME280;27247;48.020;16.720;2023-04-27T10:53:33;100205.00;;;15.75;44.88
41515;BME280;27247;48.020;16.720;2023-04-27T10:57:54;100206.47;;;16.38;43.91
41515;BME280;27247;48.020;16.720;2023-04-27T11:02:06;100204.44;;;16.53;43.73
41515;BME280;27247;48.020;16.720;2023-04-27T11:06:16;100203.66;;;17.19;45.45
41515;BME280;27247;48.020;16.720;2023-04-27T11:10:26;100207.13;;;17.79;43.34
41515;BME280;27247;48.020;16.720;2023-04-27T11:14:37;100203.03;;;18.08;41.21
41515;BME280;27247;48.020;16.720;2023-04-27T11:18:47;100195.69;;;17.57;40.69
41515;BME280;27247;48.020;16.720;2023-04-27T11:22:58;100203.63;;;17.72;40.88
41515;BME280;27247;48.020;16.720;2023-04-27T11:27:08;100208.16;;;17.58;40.31
41515;BME280;27247;48.020;16.720;2023-04-27T11:31:19;100197.75;;;18.26;40.17
41515;BME280;27247;48.020;16.720;2023-04-27T11:35:33;100207.56;;;17.49;39.58
41515;BME280;27247;48.020;16.720;2023-04-27T11:39:44;100206.38;;;18.10;42.17
41515;BME280;27247;48.020;16.720;2023-04-27T11:44:03;100213.44;;;17.07;42.85
41515;BME280;27247;48.020;16.720;2023-04-27T11:48:14;100193.84;;;17.51;43.29
41515;BME280;27247;48.020;16.720;2023-04-27T11:56:40;100199.00;;;17.79;41.75
41515;BME280;27247;48.020;16.720;2023-04-27T12:00:51;100198.56;;;17.89;42.53
41515;BME280;27247;48.020;16.720;2023-04-27T12:05:02;100189.03;;;17.66;42.06
41515;BME280;27247;48.020;16.720;2023-04-27T12:09:14;100187.84;;;17.36;41.79
41515;BME280;27247;48.020;16.720;2023-04-27T12:13:25;100196.41;;;16.93;42.02
41515;BME280;27247;48.020;16.720;2023-04-27T12:17:36;100179.75;;;17.36;43.47
41515;BME280;27247;48.020;16.720;2023-04-27T12:21:47;100185.53;;;17.72;42.44
41515;BME280;27247;48.020;16.720;2023-04-27T12:25:58;100174.50;;;18.50;42.10
41515;BME280;27247;48.020;16.720;2023-04-27T12:30:08;100177.03;;;19.26;39.02
41515;BME280;27247;48.020;16.720;2023-04-27T12:34:18;100174.09;;;19.28;38.06
41515;BME280;27247;48.020;16.720;2023-04-27T12:38:29;100172.78;;;19.73;39.34
41515;BME280;27247;48.020;16.720;2023-04-27T12:42:39;100174.22;;;19.94;39.64
41515;BME280;27247;48.020;16.720;2023-04-27T12:46:50;100160.94;;;19.68;39.30
41515;BME280;27247;48.020;16.720;2023-04-27T12:51:00;100167.66;;;19.65;39.32
41515;BME280;27247;48.020;16.720;2023-04-27T12:55:10;100169.19;;;19.18;38.90
41515;BME280;27247;48.020;16.720;2023-04-27T12:59:21;100169.56;;;19.83;39.90
41515;BME280;27247;48.020;16.720;2023-04-27T13:03:31;100163.09;;;19.23;39.82
41515;BME280;27247;48.020;16.720;2023-04-27T13:07:42;100155.06;;;18.91;40.28
41515;BME280;27247;48.020;16.720;2023-04-27T13:11:52;100149.75;;;18.46;40.05
41515;BME280;27247;48.020;16.720;2023-04-27T13:16:03;100154.47;;;17.88;40.13
41515;BME280;27247;48.020;16.720;2023-04-27T13:20:13;100148.91;;;17.63;39.96
41515;BME280;27247;48.020;16.720;2023-04-27T13:24:24;100156.34;;;16.90;40.61
41515;BME280;27247;48.020;16.720;2023-04-27T13:28:35;100150.25;;;17.34;42.48
41515;BME280;27247;48.020;16.720;2023-04-27T13:32:45;100145.50;;;18.57;41.14
41515;BME280;27247;48.020;16.720;2023-04-27T13:36:55;100151.84;;;19.01;38.86
41515;BME280;27247;48.020;16.720;2023-04-27T13:41:06;100155.19;;;19.39;39.33
41515;BME280;27247;48.020;16.720;2023-04-27T13:45:17;100144.22;;;18.91;39.56
41515;BME280;27247;48.020;16.720;2023-04-27T13:49:27;100148.88;;;19.27;40.52
41515;BME280;27247;48.020;16.720;2023-04-27T13:53:37;100143.28;;;19.22;38.72
41515;BME280;27247;48.020;16.720;2023-04-27T13:57:48;100148.22;;;19.68;38.76
41515;BME280;27247;48.020;16.720;2023-04-27T14:01:58;100136.22;;;19.76;38.37
41515;BME280;27247;48.020;16.720;2023-04-27T14:06:08;100146.81;;;19.84;38.98
41515;BME280;27247;48.020;16.720;2023-04-27T14:10:19;100137.59;;;18.56;39.22
41515;BME280;27247;48.020;16.720;2023-04-27T14:14:29;100149.41;;;18.36;41.02
41515;BME280;27247;48.020;16.720;2023-04-27T14:18:39;100140.97;;;18.51;40.40
41515;BME280;27247;48.020;16.720;2023-04-27T14:22:50;100143.06;;;18.80;39.05
41515;BME280;27247;48.020;16.720;2023-04-27T14:27:00;100146.06;;;19.16;37.87
41515;BME280;27247;48.020;16.720;2023-04-27T14:31:10;100143.00;;;19.30;38.84
41515;BME280;27247;48.020;16.720;2023-04-27T14:35:21;100147.63;;;19.66;38.79
41515;BME280;27247;48.020;16.720;2023-04-27T14:39:32;100142.66;;;20.12;37.16
41515;BME280;27247;48.020;16.720;2023-04-27T14:43:50;100140.66;;;20.07;36.47
41515;BME280;27247;48.020;16.720;2023-04-27T14:48:00;100154.16;;;20.25;38.78
41515;BME280;27247;48.020;16.720;2023-04-27T14:52:11;100149.31;;;19.42;38.44
41515;BME280;27247;48.020;16.720;2023-04-27T14:56:21;100143.66;;;18.51;39.78
41515;BME280;27247;48.020;16.720;2023-04-27T15:00:34;100140.00;;;18.07;41.13
41515;BME280;27247;48.020;16.720;2023-04-27T15:04:44;100143.28;;;18.16;39.73
41515;BME280;27247;48.020;16.720;2023-04-27T15:08:55;100147.31;;;17.36;39.90
41515;BME280;27247;48.020;16.720;2023-04-27T15:13:05;100149.28;;;17.02;41.26
41515;BME280;27247;48.020;16.720;2023-04-27T15:17:16;100141.81;;;16.78;41.84
41515;BME280;27247;48.020;16.720;2023-04-27T15:21:26;100148.19;;;16.64;42.70
41515;BME280;27247;48.020;16.720;2023-04-27T15:25:36;100148.88;;;16.79;43.69
41515;BME280;27247;48.020;16.720;2023-04-27T15:29:47;100150.53;;;16.67;42.53
41515;BME280;27247;48.020;16.720;2023-04-27T15:33:57;100164.59;;;16.55;42.31
41515;BME280;27247;48.020;16.720;2023-04-27T15:38:09;100156.47;;;16.49;42.84
41515;BME280;27247;48.020;16.720;2023-04-27T15:42:20;100141.34;;;16.48;43.01
41515;BME280;27247;48.020;16.720;2023-04-27T15:46:30;100145.47;;;16.31;43.13
41515;BME280;27247;48.020;16.720;2023-04-27T15:50:43;100140.88;;;16.11;43.41
41515;BME280;27247;48.020;16.720;2023-04-27T15:54:54;100147.31;;;16.23;43.53
41515;BME280;27247;48.020;16.720;2023-04-27T15:59:04;100146.19;;;15.91;43.41
41515;BME280;27247;48.020;16.720;2023-04-27T16:03:15;100141.81;;;15.84;44.42
41515;BME280;27247;48.020;16.720;2023-04-27T16:07:26;100137.31;;;16.04;44.62
41515;BME280;27247;48.020;16.720;2023-04-27T16:11:36;100132.31;;;15.94;44.35
41515;BME280;27247;48.020;16.720;2023-04-27T16:15:48;100138.91;;;15.79;43.40
41515;BME280;27247;48.020;16.720;2023-04-27T16:19:59;100133.47;;;15.66;43.03
41515;BME280;27247;48.020;16.720;2023-04-27T16:24:09;100132.88;;;15.42;45.63
41515;BME280;27247;48.020;16.720;2023-04-27T16:28:21;100128.38;;;15.15;43.38
41515;BME280;27247;48.020;16.720;2023-04-27T16:32:31;100130.00;;;15.09;44.29
41515;BME280;27247;48.020;16.720;2023-04-27T16:36:42;100136.81;;;15.05;43.87
41515;BME280;27247;48.020;16.720;2023-04-27T16:40:53;100139.13;;;15.08;41.91
41515;BME280;27247;48.020;16.720;2023-04-27T16:45:05;100138.63;;;14.98;42.22
41515;BME280;27247;48.020;16.720;2023-04-27T16:49:16;100133.78;;;14.87;41.78
41515;BME280;27247;48.020;16.720;2023-04-27T16:53:26;100140.00;;;14.87;43.20
41515;BME280;27247;48.020;16.720;2023-04-27T16:57:36;100147.00;;;14.82;43.59
41515;BME280;27247;48.020;16.720;2023-04-27T17:01:47;100144.91;;;14.77;44.53
41515;BME280;27247;48.020;16.720;2023-04-27T17:05:57;100144.91;;;14.56;45.94
41515;BME280;27247;48.020;16.720;2023-04-27T17:10:08;100150.97;;;14.22;48.31
41515;BME280;27247;48.020;16.720;2023-04-27T17:14:18;100162.56;;;13.86;49.66
41515;BME280;27247;48.020;16.720;2023-04-27T17:18:29;100155.38;;;13.72;51.33
41515;BME280;27247;48.020;16.720;2023-04-27T17:22:39;100159.28;;;13.40;51.99
41515;BME280;27247;48.020;16.720;2023-04-27T17:26:50;100155.56;;;13.26;52.26
41515;BME280;27247;48.020;16.720;2023-04-27T17:31:00;100164.50;;;13.04;52.11
41515;BME280;27247;48.020;16.720;2023-04-27T17:35:11;100170.59;;;12.98;54.38
41515;BME280;27247;48.020;16.720;2023-04-27T17:39:21;100176.78;;;12.84;54.85
41515;BME280;27247;48.020;16.720;2023-04-27T17:43:34;100176.44;;;12.64;55.55
41515;BME280;27247;48.020;16.720;2023-04-27T17:47:47;100172.75;;;12.42;55.43
41515;BME280;27247;48.020;16.720;2023-04-27T17:51:57;100186.09;;;12.27;57.25
41515;BME280;27247;48.020;16.720;2023-04-27T17:56:08;100186.59;;;12.00;56.28
41515;BME280;27247;48.020;16.720;2023-04-27T18:00:21;100185.09;;;11.97;55.30
41515;BME280;27247;48.020;16.720;2023-04-27T18:04:32;100192.59;;;12.02;55.00
41515;BME280;27247;48.020;16.720;2023-04-27T18:08:42;100199.00;;;11.93;55.81
41515;BME280;27247;48.020;16.720;2023-04-27T18:12:53;100203.84;;;11.97;55.90
41515;BME280;27247;48.020;16.720;2023-04-27T18:17:04;100203.81;;;12.05;55.75
41515;BME280;27247;48.020;16.720;2023-04-27T18:21:15;100205.06;;;12.18;55.50
41515;BME280;27247;48.020;16.720;2023-04-27T18:25:25;100204.09;;;12.10;55.59
41515;BME280;27247;48.020;16.720;2023-04-27T18:29:36;100205.78;;;12.11;58.34
41515;BME280;27247;48.020;16.720;2023-04-27T18:33:46;100222.94;;;12.25;57.07
41515;BME280;27247;48.020;16.720;2023-04-27T18:37:57;100222.84;;;12.10;57.78
41515;BME280;27247;48.020;16.720;2023-04-27T18:42:07;100228.03;;;11.81;58.49
41515;BME280;27247;48.020;16.720;2023-04-27T18:46:18;100232.91;;;11.69;58.01
41515;BME280;27247;48.020;16.720;2023-04-27T18:50:29;100231.41;;;11.67;57.86
41515;BME280;27247;48.020;16.720;2023-04-27T18:54:40;100237.75;;;11.66;56.95
41515;BME280;27247;48.020;16.720;2023-04-27T18:58:51;100233.28;;;11.58;56.94
41515;BME280;27247;48.020;16.720;2023-04-27T19:03:03;100228.63;;;11.36;57.62
41515;BME280;27247;48.020;16.720;2023-04-27T19:07:14;100233.50;;;11.24;58.37
41515;BME280;27247;48.020;16.720;2023-04-27T19:11:24;100239.69;;;11.16;58.59
41515;BME280;27247;48.020;16.720;2023-04-27T19:15:35;100235.53;;;11.14;60.03
41515;BME280;27247;48.020;16.720;2023-04-27T19:19:45;100248.06;;;10.81;61.18
41515;BME280;27247;48.020;16.720;2023-04-27T19:23:56;100245.72;;;10.53;63.44
41515;BME280;27247;48.020;16.720;2023-04-27T19:28:06;100250.88;;;10.47;63.95
41515;BME280;27247;48.020;16.720;2023-04-27T19:32:17;100256.34;;;10.37;65.30
41515;BME280;27247;48.020;16.720;2023-04-27T19:36:28;100257.22;;;10.04;67.79
41515;BME280;27247;48.020;16.720;2023-04-27T19:40:39;100261.75;;;10.11;67.40
41515;BME280;27247;48.020;16.720;2023-04-27T19:44:49;100264.06;;;9.98;69.10
41515;BME280;27247;48.020;16.720;2023-04-27T19:48:59;100262.53;;;9.96;69.04
41515;BME280;27247;48.020;16.720;2023-04-27T19:53:10;100264.00;;;9.82;69.56
41515;BME280;27247;48.020;16.720;2023-04-27T19:57:21;100261.28;;;9.74;69.98
41515;BME280;27247;48.020;16.720;2023-04-27T20:01:31;100260.78;;;9.70;68.06
41515;BME280;27247;48.020;16.720;2023-04-27T20:05:41;100255.81;;;9.49;68.42
41515;BME280;27247;48.020;16.720;2023-04-27T20:09:52;100265.44;;;9.42;68.24
41515;BME280;27247;48.020;16.720;2023-04-27T20:14:02;100270.31;;;9.47;68.30
41515;BME280;27247;48.020;16.720;2023-04-27T20:18:13;100269.66;;;9.27;69.69
41515;BME280;27247;48.020;16.720;2023-04-27T20:22:23;100280.38;;;9.35;68.65
41515;BME280;27247;48.020;16.720;2023-04-27T20:26:33;100284.19;;;9.07;68.57
41515;BME280;27247;48.020;16.720;2023-04-27T20:30:44;100287.47;;;9.01;69.60
41515;BME280;27247;48.020;16.720;2023-04-27T20:34:54;100291.34;;;8.88;70.43
41515;BME280;27247;48.020;16.720;2023-04-27T20:39:05;100286.41;;;8.76;70.19
41515;BME280;27247;48.020;16.720;2023-04-27T20:43:15;100284.13;;;8.63;70.88
41515;BME280;27247;48.020;16.720;2023-04-27T20:47:27;100285.41;;;8.41;71.50
41515;BME280;27247;48.020;16.720;2023-04-27T20:51:37;100278.38;;;8.13;72.32
41515;BME280;27247;48.020;16.720;2023-04-27T20:55:48;100281.41;;;8.00;72.75
41515;BME280;27247;48.020;16.720;2023-04-27T20:59:58;100299.72;;;7.76;72.43
41515;BME280;27247;48.020;16.720;2023-04-27T21:04:09;100305.00;;;7.48;74.32
41515;BME280;27247;48.020;16.720;2023-04-27T21:08:19;100299.13;;;7.45;75.00
41515;BME280;27247;48.020;16.720;2023-04-27T21:12:29;100289.72;;;7.50;74.45
41515;BME280;27247;48.020;16.720;2023-04-27T21:16:40;100293.41;;;7.40;75.15
41515;BME280;27247;48.020;16.720;2023-04-27T21:20:50;100286.28;;;7.21;75.74
41515;BME280;27247;48.020;16.720;2023-04-27T21:25:01;100300.44;;;7.02;76.83
41515;BME280;27247;48.020;16.720;2023-04-27T21:29:11;100304.22;;;6.90;76.62
41515;BME280;27247;48.020;16.720;2023-04-27T21:33:22;100305.47;;;6.76;76.42
41515;BME280;27247;48.020;16.720;2023-04-27T21:37:33;100309.09;;;6.56;77.15
41515;BME280;27247;48.020;16.720;2023-04-27T21:41:43;100306.03;;;6.60;77.78
41515;BME280;27247;48.020;16.720;2023-04-27T21:45:53;100305.06;;;6.81;77.33